Time;durP1;ratioP1;P1;durP2;ratioP2;P2;SDS_P1;SDS_P2;PMS_P1;PMS_P2;Temp;Humidity;BMP_temperature;BMP_pressure;BME280_temperature;BME280_humidity;BME280_pressure;Samples;Min_cycle;Max_cycle;Signal;HPM_P1;HPM_P2
2021/08/25 00:01:12;;;;;;;7.35;3.40;;;;;;;;;;5074965;28;20024;-37
2021/08/25 00:03:38;;;;;;;2.63;2.00;;;;;;;;;;5075882;28;20040;-39
2021/08/25 00:06:03;;;;;;;9.82;2.30;;;;;;;;;;5075689;28;20021;-38
2021/08/25 00:08:28;;;;;;;3.20;2.00;;;;;;;;;;5079547;28;20364;-38
2021/08/25 00:10:54;;;;;;;6.80;2.10;;;;;;;;;;5073548;28;20467;-40
2021/08/25 00:13:20;;;;;;;10.02;2.22;;;;;;;;;;5074912;28;20877;-38
2021/08/25 00:15:45;;;;;;;3.95;2.63;;;;;;;;;;5076483;28;20024;-38
2021/08/25 00:18:11;;;;;;;2.40;1.77;;;;;;;;;;5080634;28;20028;-41
2021/08/25 00:20:37;;;;;;;8.70;1.83;;;;;;;;;;5075603;28;20103;-39
2021/08/25 00:23:03;;;;;;;3.60;1.90;;;;;;;;;;5075141;28;20462;-40
2021/08/25 00:25:28;;;;;;;8.93;3.58;;;;;;;;;;5076356;28;20023;-40
2021/08/25 00:27:54;;;;;;;4.40;2.72;;;;;;;;;;5074138;28;20035;-39
2021/08/25 00:30:19;;;;;;;2.63;1.75;;;;;;;;;;5076381;28;20024;-41
2021/08/25 00:32:45;;;;;;;3.45;2.17;;;;;;;;;;5071442;28;20117;-42
2021/08/25 00:35:11;;;;;;;11.25;3.17;;;;;;;;;;5078884;28;20073;-44
2021/08/25 00:37:37;;;;;;;3.28;2.30;;;;;;;;;;5078789;28;20012;-39
2021/08/25 00:40:02;;;;;;;4.05;3.08;;;;;;;;;;5076591;28;20123;-40
2021/08/25 00:42:27;;;;;;;6.35;3.08;;;;;;;;;;5073989;28;20024;-40
2021/08/25 00:44:53;;;;;;;4.50;2.58;;;;;;;;;;5073525;28;20025;-40
2021/08/25 00:47:18;;;;;;;3.38;2.40;;;;;;;;;;5073519;28;20017;-39
2021/08/25 00:49:45;;;;;;;7.18;4.80;;;;;;;;;;5074851;28;20031;-39
2021/08/25 00:52:10;;;;;;;4.13;3.72;;;;;;;;;;5076851;28;20333;-39
2021/08/25 00:54:35;;;;;;;5.13;3.65;;;;;;;;;;5075758;28;20027;-40
2021/08/25 00:57:01;;;;;;;6.47;3.72;;;;;;;;;;5072340;28;20030;-39
2021/08/25 00:59:27;;;;;;;3.60;2.47;;;;;;;;;;5077056;28;20073;-38
2021/08/25 01:01:55;;;;;;;4.35;2.65;;;;;;;;;;5072803;28;20025;-37
2021/08/25 01:04:43;;;;;;;4.20;3.03;;;;;;;;;;5078870;28;20040;-38
2021/08/25 01:07:09;;;;;;;3.70;2.05;;;;;;;;;;5068862;28;20067;-40
2021/08/25 01:09:38;;;;;;;5.13;2.95;;;;;;;;;;5071630;28;20054;-40
2021/08/25 01:12:04;;;;;;;4.45;2.30;;;;;;;;;;5072085;28;20444;-42
2021/08/25 01:14:29;;;;;;;3.42;2.60;;;;;;;;;;5078878;28;20039;-40
2021/08/25 01:16:56;;;;;;;3.63;1.98;;;;;;;;;;5075007;28;20125;-40
2021/08/25 01:19:21;;;;;;;3.03;2.50;;;;;;;;;;5076665;28;20021;-39
2021/08/25 01:21:47;;;;;;;4.07;2.30;;;;;;;;;;5072511;28;20321;-38
2021/08/25 01:24:13;;;;;;;3.60;3.05;;;;;;;;;;5071180;28;20135;-38
2021/08/25 01:26:39;;;;;;;11.70;3.70;;;;;;;;;;5076224;28;20119;-40
2021/08/25 01:29:04;;;;;;;3.17;2.17;;;;;;;;;;5076525;28;20031;-39
2021/08/25 01:31:29;;;;;;;7.82;2.88;;;;;;;;;;5068988;28;20016;-39
2021/08/25 01:34:02;;;;;;;3.75;2.53;;;;;;;;;;5071862;28;20531;-39
2021/08/25 01:36:27;;;;;;;2.78;2.28;;;;;;;;;;5074150;28;20025;-39
2021/08/25 01:38:56;;;;;;;4.30;2.58;;;;;;;;;;5070991;28;20035;-38
2021/08/25 01:41:22;;;;;;;5.47;2.10;;;;;;;;;;5077542;28;20012;-38
2021/08/25 01:43:48;;;;;;;3.00;2.05;;;;;;;;;;5070539;28;20020;-38
2021/08/25 01:46:20;;;;;;;7.57;3.08;;;;;;;;;;5070613;28;20418;-38
2021/08/25 01:48:45;;;;;;;3.85;1.77;;;;;;;;;;5075295;28;20062;-39
2021/08/25 01:51:11;;;;;;;3.45;2.53;;;;;;;;;;5072014;28;20420;-38
2021/08/25 01:53:36;;;;;;;5.80;2.75;;;;;;;;;;5068566;28;20449;-37
2021/08/25 01:56:01;;;;;;;9.27;3.08;;;;;;;;;;5075685;28;20041;-38
2021/08/25 01:58:26;;;;;;;11.25;3.60;;;;;;;;;;5070120;28;20017;-38
2021/08/25 02:00:52;;;;;;;7.78;2.58;;;;;;;;;;5071936;28;20830;-38
2021/08/25 02:03:17;;;;;;;5.43;3.42;;;;;;;;;;5073511;28;20036;-38
2021/08/25 02:05:42;;;;;;;10.50;2.47;;;;;;;;;;5075189;28;20035;-38
2021/08/25 02:08:08;;;;;;;3.78;2.65;;;;;;;;;;5072754;28;20047;-38
2021/08/25 02:10:34;;;;;;;6.47;4.72;;;;;;;;;;5073767;28;20095;-40
2021/08/25 02:12:59;;;;;;;5.00;3.28;;;;;;;;;;5071032;28;20020;-42
2021/08/25 02:15:25;;;;;;;3.42;1.98;;;;;;;;;;5076665;28;20514;-41
2021/08/25 02:17:50;;;;;;;4.78;2.85;;;;;;;;;;5073790;28;20020;-42
2021/08/25 02:20:15;;;;;;;9.35;3.47;;;;;;;;;;5070550;28;20031;-41
2021/08/25 02:22:40;;;;;;;4.88;3.03;;;;;;;;;;5076030;28;20082;-39
2021/08/25 02:25:06;;;;;;;4.25;2.97;;;;;;;;;;5075375;28;20491;-42
2021/08/25 02:27:31;;;;;;;7.80;2.70;;;;;;;;;;5068938;28;20469;-41
2021/08/25 02:29:57;;;;;;;7.82;3.47;;;;;;;;;;5070456;28;20103;-42
2021/08/25 02:32:25;;;;;;;6.55;2.80;;;;;;;;;;5066205;28;20059;-41
2021/08/25 02:34:51;;;;;;;3.35;2.45;;;;;;;;;;5070552;28;20039;-41
2021/08/25 02:37:16;;;;;;;5.70;3.10;;;;;;;;;;5072593;28;20028;-44
2021/08/25 02:39:42;;;;;;;10.65;3.05;;;;;;;;;;5076009;28;20047;-41
2021/08/25 02:42:07;;;;;;;3.33;2.55;;;;;;;;;;5073997;28;20051;-41
2021/08/25 02:44:32;;;;;;;5.25;2.67;;;;;;;;;;5073952;28;20021;-39
2021/08/25 02:46:58;;;;;;;16.63;3.25;;;;;;;;;;5072674;28;20107;-39
2021/08/25 02:49:23;;;;;;;4.65;2.70;;;;;;;;;;5073324;28;20476;-40
2021/08/25 02:51:48;;;;;;;6.22;3.58;;;;;;;;;;5072001;28;20074;-39
2021/08/25 02:54:13;;;;;;;2.85;2.58;;;;;;;;;;5073464;28;20060;-39
2021/08/25 02:56:39;;;;;;;4.30;2.78;;;;;;;;;;5071873;28;20017;-39
2021/08/25 02:59:04;;;;;;;7.75;2.58;;;;;;;;;;5072941;28;20021;-38
2021/08/25 03:01:29;;;;;;;9.77;2.83;;;;;;;;;;5071729;28;20048;-38
2021/08/25 03:03:55;;;;;;;3.95;2.45;;;;;;;;;;5074039;28;20051;-42
2021/08/25 03:06:20;;;;;;;5.15;1.98;;;;;;;;;;5073804;28;20519;-43
2021/08/25 03:08:45;;;;;;;20.63;3.25;;;;;;;;;;5074894;28;20066;-39
2021/08/25 03:11:10;;;;;;;3.95;1.98;;;;;;;;;;5072722;28;20074;-40
2021/08/25 03:13:36;;;;;;;6.32;2.53;;;;;;;;;;5074557;28;20727;-41
2021/08/25 03:16:02;;;;;;;10.98;2.80;;;;;;;;;;5073398;28;20109;-39
2021/08/25 03:18:27;;;;;;;5.45;3.65;;;;;;;;;;5065973;28;20052;-41
2021/08/25 03:20:52;;;;;;;4.80;2.25;;;;;;;;;;5074707;28;20025;-39
2021/08/25 03:23:18;;;;;;;3.38;2.25;;;;;;;;;;5071607;28;20025;-39
2021/08/25 03:25:43;;;;;;;8.55;3.00;;;;;;;;;;5074494;28;20593;-39
2021/08/25 03:28:09;;;;;;;5.80;3.25;;;;;;;;;;5072207;28;20068;-41
2021/08/25 03:30:34;;;;;;;11.77;4.03;;;;;;;;;;5074256;28;20033;-39
2021/08/25 03:33:04;;;;;;;4.30;2.95;;;;;;;;;;5074594;28;20017;-39
2021/08/25 03:35:29;;;;;;;10.90;3.15;;;;;;;;;;5077103;28;20122;-39
2021/08/25 03:37:54;;;;;;;3.75;2.63;;;;;;;;;;5078474;28;20376;-40
2021/08/25 03:40:20;;;;;;;5.05;3.78;;;;;;;;;;5079904;28;20047;-39
2021/08/25 03:42:45;;;;;;;4.35;1.88;;;;;;;;;;5079592;28;20019;-38
2021/08/25 03:45:11;;;;;;;9.10;2.97;;;;;;;;;;5071884;28;20424;-39
2021/08/25 03:47:36;;;;;;;4.57;3.17;;;;;;;;;;5075939;28;20059;-40
2021/08/25 03:50:02;;;;;;;9.07;3.50;;;;;;;;;;5075570;28;20032;-40
2021/08/25 03:52:27;;;;;;;3.72;2.53;;;;;;;;;;5073288;28;20043;-39
2021/08/25 03:54:52;;;;;;;5.90;2.88;;;;;;;;;;5076129;28;20023;-39
2021/08/25 03:57:17;;;;;;;5.93;3.20;;;;;;;;;;5076970;28;20492;-41
2021/08/25 03:59:43;;;;;;;8.77;3.95;;;;;;;;;;5073457;28;20015;-44
2021/08/25 04:02:08;;;;;;;9.13;3.40;;;;;;;;;;5076855;28;20586;-39
2021/08/25 04:04:33;;;;;;;3.08;2.38;;;;;;;;;;5079784;28;20045;-39
2021/08/25 04:06:59;;;;;;;5.60;2.55;;;;;;;;;;5075278;28;20394;-38
2021/08/25 04:09:24;;;;;;;5.03;3.28;;;;;;;;;;5075867;28;20026;-39
2021/08/25 04:11:49;;;;;;;5.78;3.33;;;;;;;;;;5077036;28;20062;-38
2021/08/25 04:14:14;;;;;;;8.05;2.80;;;;;;;;;;5077883;28;20547;-39
2021/08/25 04:16:40;;;;;;;7.22;3.75;;;;;;;;;;5074295;28;20479;-39
2021/08/25 04:19:05;;;;;;;4.60;3.60;;;;;;;;;;5074209;28;20100;-39
2021/08/25 04:21:30;;;;;;;6.68;3.72;;;;;;;;;;5075683;28;20047;-39
2021/08/25 04:23:56;;;;;;;4.35;2.53;;;;;;;;;;5077998;28;20074;-39
2021/08/25 04:26:21;;;;;;;5.28;2.85;;;;;;;;;;5075882;28;20111;-42
2021/08/25 04:28:46;;;;;;;5.30;2.40;;;;;;;;;;5076583;28;20025;-40
2021/08/25 04:31:12;;;;;;;10.60;3.47;;;;;;;;;;5072158;28;20017;-40
2021/08/25 04:33:37;;;;;;;6.75;3.95;;;;;;;;;;5076595;28;20024;-41
2021/08/25 04:36:03;;;;;;;9.27;3.65;;;;;;;;;;5072725;28;20027;-42
2021/08/25 04:38:28;;;;;;;8.00;4.18;;;;;;;;;;5074787;28;20677;-38
2021/08/25 04:40:56;;;;;;;7.82;3.25;;;;;;;;;;5074758;28;20089;-38
2021/08/25 04:43:22;;;;;;;7.80;5.63;;;;;;;;;;5073358;28;20173;-38
2021/08/25 04:45:47;;;;;;;4.78;3.38;;;;;;;;;;5074344;28;20070;-37
2021/08/25 04:48:12;;;;;;;9.38;2.85;;;;;;;;;;5076808;28;20105;-37
2021/08/25 04:50:37;;;;;;;3.95;2.60;;;;;;;;;;5077532;28;20097;-38
2021/08/25 04:53:07;;;;;;;4.93;2.85;;;;;;;;;;5076693;28;20407;-37
2021/08/25 04:55:33;;;;;;;6.50;3.03;;;;;;;;;;5075888;28;20082;-39
2021/08/25 04:57:59;;;;;;;5.40;3.40;;;;;;;;;;5072341;28;20476;-39
2021/08/25 05:00:24;;;;;;;5.22;3.20;;;;;;;;;;5071349;28;20032;-39
2021/08/25 05:02:49;;;;;;;17.83;4.63;;;;;;;;;;5076231;28;20088;-40
2021/08/25 05:05:15;;;;;;;8.82;3.58;;;;;;;;;;5076347;28;20507;-41
2021/08/25 05:07:40;;;;;;;8.13;4.32;;;;;;;;;;5075892;28;20028;-41
2021/08/25 05:10:05;;;;;;;3.95;2.85;;;;;;;;;;5072801;28;20020;-40
2021/08/25 05:12:31;;;;;;;6.13;3.42;;;;;;;;;;5073311;28;20016;-40
2021/08/25 05:14:56;;;;;;;8.13;4.95;;;;;;;;;;5072998;28;20065;-41
2021/08/25 05:17:21;;;;;;;26.63;24.23;;;;;;;;;;5073171;28;20482;-40
2021/08/25 05:19:47;;;;;;;4.47;3.50;;;;;;;;;;5071380;28;20115;-44
2021/08/25 05:22:13;;;;;;;9.68;4.47;;;;;;;;;;5076258;28;20573;-37
2021/08/25 05:24:38;;;;;;;10.40;3.83;;;;;;;;;;5075899;28;20020;-38
2021/08/25 05:27:03;;;;;;;6.75;4.00;;;;;;;;;;5073207;28;20040;-38
2021/08/25 05:29:29;;;;;;;5.57;3.63;;;;;;;;;;5072776;28;20544;-37
2021/08/25 05:31:54;;;;;;;14.63;3.83;;;;;;;;;;5077318;28;20136;-37
2021/08/25 05:34:19;;;;;;;9.68;3.67;;;;;;;;;;5079600;28;20028;-37
2021/08/25 05:36:44;;;;;;;4.82;3.28;;;;;;;;;;5074528;28;20020;-37
2021/08/25 05:39:10;;;;;;;7.78;3.03;;;;;;;;;;5067727;28;20032;-38
2021/08/25 05:41:35;;;;;;;10.55;4.70;;;;;;;;;;5075668;28;20508;-38
2021/08/25 05:44:04;;;;;;;7.72;3.50;;;;;;;;;;5074620;28;20391;-38
2021/08/25 05:46:30;;;;;;;2.92;2.35;;;;;;;;;;5073367;28;20487;-38
2021/08/25 05:48:55;;;;;;;7.65;3.05;;;;;;;;;;5073090;28;20483;-39
2021/08/25 05:51:20;;;;;;;19.35;3.55;;;;;;;;;;5074193;28;20086;-38
2021/08/25 05:53:47;;;;;;;5.00;3.20;;;;;;;;;;5068531;28;20028;-37
2021/08/25 05:56:13;;;;;;;8.18;3.97;;;;;;;;;;5073469;28;20036;-36
2021/08/25 05:58:40;;;;;;;10.65;6.07;;;;;;;;;;5073226;28;20024;-36
2021/08/25 06:01:05;;;;;;;10.43;5.85;;;;;;;;;;5074417;28;20056;-36
2021/08/25 06:03:31;;;;;;;11.57;3.97;;;;;;;;;;5076145;28;20102;-36
2021/08/25 06:05:56;;;;;;;14.95;3.67;;;;;;;;;;5074942;28;20021;-36
2021/08/25 06:08:21;;;;;;;13.35;4.10;;;;;;;;;;5073066;28;20582;-36
2021/08/25 06:10:47;;;;;;;8.68;4.07;;;;;;;;;;5074210;28;20020;-36
2021/08/25 06:13:12;;;;;;;9.63;4.22;;;;;;;;;;5073746;28;20039;-36
2021/08/25 06:15:37;;;;;;;7.57;4.45;;;;;;;;;;5076239;28;20024;-36
2021/08/25 06:18:02;;;;;;;26.65;4.15;;;;;;;;;;5066925;28;20548;-34
2021/08/25 06:20:28;;;;;;;6.80;2.92;;;;;;;;;;5073496;28;20024;-35
2021/08/25 06:22:53;;;;;;;6.05;3.67;;;;;;;;;;5073584;28;20016;-35
2021/08/25 06:25:19;;;;;;;12.70;7.45;;;;;;;;;;5074173;28;20467;-35
2021/08/25 06:27:44;;;;;;;11.90;7.13;;;;;;;;;;5071460;28;20058;-35
2021/08/25 06:30:09;;;;;;;20.25;5.82;;;;;;;;;;5075211;28;20043;-35
2021/08/25 06:32:35;;;;;;;20.13;4.53;;;;;;;;;;5072221;28;20012;-35
2021/08/25 06:35:00;;;;;;;5.68;3.15;;;;;;;;;;5073445;28;20020;-35
2021/08/25 06:37:25;;;;;;;27.23;4.30;;;;;;;;;;5073470;28;20020;-36
2021/08/25 06:39:51;;;;;;;13.40;5.85;;;;;;;;;;5072603;28;20016;-36
2021/08/25 06:42:16;;;;;;;5.57;4.13;;;;;;;;;;5074100;28;20460;-38
2021/08/25 06:44:41;;;;;;;8.10;3.78;;;;;;;;;;5071346;28;20082;-35
2021/08/25 06:47:07;;;;;;;28.92;6.57;;;;;;;;;;5074344;28;20028;-35
2021/08/25 06:49:32;;;;;;;14.10;4.30;;;;;;;;;;5074871;28;20645;-34
2021/08/25 06:51:57;;;;;;;9.95;3.78;;;;;;;;;;5069568;28;20509;-36
2021/08/25 06:54:22;;;;;;;11.20;3.53;;;;;;;;;;5073320;28;20043;-35
2021/08/25 06:56:48;;;;;;;15.88;6.70;;;;;;;;;;5072143;28;20029;-36
2021/08/25 06:59:13;;;;;;;21.45;8.90;;;;;;;;;;5071849;28;20028;-35
2021/08/25 07:01:38;;;;;;;17.13;11.75;;;;;;;;;;5075647;28;20048;-36
2021/08/25 07:04:04;;;;;;;9.23;8.27;;;;;;;;;;5074337;28;20053;-43
2021/08/25 07:06:29;;;;;;;9.43;6.50;;;;;;;;;;5076659;28;20032;-36
2021/08/25 07:08:54;;;;;;;14.95;8.00;;;;;;;;;;5075815;28;20039;-35
2021/08/25 07:11:20;;;;;;;26.85;8.38;;;;;;;;;;5078085;28;20587;-36
2021/08/25 07:13:45;;;;;;;11.48;7.10;;;;;;;;;;5071246;28;20031;-35
2021/08/25 07:16:10;;;;;;;15.70;7.78;;;;;;;;;;5077595;28;20024;-35
2021/08/25 07:18:36;;;;;;;22.70;9.52;;;;;;;;;;5078270;28;20024;-35
2021/08/25 07:21:03;;;;;;;15.98;9.40;;;;;;;;;;5073913;28;20017;-36
2021/08/25 07:23:29;;;;;;;17.08;7.43;;;;;;;;;;5078585;28;20099;-36
2021/08/25 07:25:54;;;;;;;13.95;5.43;;;;;;;;;;5075543;28;20233;-35
2021/08/25 07:28:20;;;;;;;12.82;4.63;;;;;;;;;;5077441;28;20545;-35
2021/08/25 07:30:45;;;;;;;16.17;3.50;;;;;;;;;;5078541;28;20024;-35
2021/08/25 07:33:16;;;;;;;7.30;5.15;;;;;;;;;;5079390;28;20012;-35
2021/08/25 07:35:41;;;;;;;;;;;;;;;;;;5081918;28;20237;-35
2021/08/25 07:38:06;;;;;;;4.27;2.50;;;;;;;;;;5077814;28;19986;-36
2021/08/25 07:40:31;;;;;;;5.25;3.63;;;;;;;;;;5071506;28;20254;-35
2021/08/25 07:42:57;;;;;;;23.08;6.43;;;;;;;;;;5073788;28;20693;-35
2021/08/25 07:45:22;;;;;;;9.77;4.40;;;;;;;;;;5079501;28;20032;-35
2021/08/25 07:47:47;;;;;;;8.55;4.85;;;;;;;;;;5074620;28;20023;-35
2021/08/25 07:50:13;;;;;;;7.32;2.88;;;;;;;;;;5074078;28;20114;-37
2021/08/25 07:52:38;;;;;;;6.97;5.35;;;;;;;;;;5074188;28;20020;-37
2021/08/25 07:55:04;;;;;;;16.70;15.02;;;;;;;;;;5072360;28;20025;-37
2021/08/25 07:57:29;;;;;;;4.28;3.13;;;;;;;;;;5078828;28;20021;-37
2021/08/25 07:59:54;;;;;;;5.20;2.85;;;;;;;;;;5079476;28;20023;-38
2021/08/25 08:02:20;;;;;;;6.95;3.03;;;;;;;;;;5079109;28;20032;-37
2021/08/25 08:04:46;;;;;;;7.32;2.95;;;;;;;;;;5077734;28;20056;-37
2021/08/25 08:07:11;;;;;;;7.53;2.88;;;;;;;;;;5078062;28;20103;-37
2021/08/25 08:09:36;;;;;;;6.30;3.42;;;;;;;;;;5074817;28;20035;-38
2021/08/25 08:12:02;;;;;;;7.05;3.47;;;;;;;;;;5074273;28;20108;-37
2021/08/25 08:14:28;;;;;;;4.25;3.05;;;;;;;;;;5074002;28;20048;-38
2021/08/25 08:16:56;;;;;;;3.45;2.20;;;;;;;;;;5078469;28;20476;-38
2021/08/25 08:19:29;;;;;;;5.28;2.60;;;;;;;;;;5077168;28;20024;-37
2021/08/25 08:21:55;;;;;;;3.05;1.98;;;;;;;;;;5073575;28;20111;-39
2021/08/25 08:24:20;;;;;;;2.78;1.67;;;;;;;;;;5074216;28;20092;-40
2021/08/25 08:26:46;;;;;;;3.42;1.58;;;;;;;;;;5077152;28;20020;-40
2021/08/25 08:29:11;;;;;;;7.25;1.70;;;;;;;;;;5077523;28;20058;-38
2021/08/25 08:31:37;;;;;;;1.77;1.08;;;;;;;;;;5075072;28;20479;-38
2021/08/25 08:34:02;;;;;;;5.03;1.92;;;;;;;;;;5070283;28;20636;-39
2021/08/25 08:36:27;;;;;;;4.18;2.40;;;;;;;;;;5072103;28;20086;-39
2021/08/25 08:38:53;;;;;;;2.90;2.20;;;;;;;;;;5070415;28;20368;-39
2021/08/25 08:41:18;;;;;;;2.38;1.17;;;;;;;;;;5075365;28;20506;-40
2021/08/25 08:43:45;;;;;;;4.28;1.90;;;;;;;;;;5074693;28;20020;-42
2021/08/25 08:46:14;;;;;;;5.28;3.00;;;;;;;;;;5073418;28;20034;-41
2021/08/25 08:48:39;;;;;;;3.78;2.13;;;;;;;;;;5074544;28;20028;-41
2021/08/25 08:51:05;;;;;;;7.22;3.15;;;;;;;;;;5068300;28;20050;-41
2021/08/25 08:53:31;;;;;;;4.57;1.88;;;;;;;;;;5069439;28;20169;-39
2021/08/25 08:55:56;;;;;;;2.95;1.50;;;;;;;;;;5070213;28;20042;-38
2021/08/25 08:58:21;;;;;;;3.75;2.00;;;;;;;;;;5073567;28;20016;-38
2021/08/25 09:00:47;;;;;;;3.78;1.63;;;;;;;;;;5071396;28;20020;-39
2021/08/25 09:03:26;;;;;;;4.93;1.95;;;;;;;;;;5069205;28;20240;-39
2021/08/25 09:05:53;;;;;;;3.58;1.92;;;;;;;;;;5074785;28;20071;-39
2021/08/25 09:08:21;;;;;;;2.15;1.30;;;;;;;;;;5071228;28;20066;-44
2021/08/25 09:10:46;;;;;;;10.68;3.03;;;;;;;;;;5069907;28;20032;-42
2021/08/25 09:13:12;;;;;;;3.50;2.25;;;;;;;;;;5069600;28;20050;-39
2021/08/25 09:15:39;;;;;;;7.85;2.60;;;;;;;;;;5076413;28;20181;-38
2021/08/25 09:18:05;;;;;;;3.05;2.00;;;;;;;;;;5074284;28;20092;-38
2021/08/25 09:20:32;;;;;;;3.22;1.52;;;;;;;;;;5071224;28;20023;-39
2021/08/25 09:23:07;;;;;;;5.85;2.10;;;;;;;;;;5074884;28;20716;-38
2021/08/25 09:25:33;;;;;;;1.23;0.98;;;;;;;;;;5073215;28;20443;-41
2021/08/25 09:27:59;;;;;;;3.55;2.15;;;;;;;;;;5071996;28;20062;-47
2021/08/25 09:30:24;;;;;;;5.78;1.52;;;;;;;;;;5077893;28;20373;-44
2021/08/25 09:32:49;;;;;;;7.45;2.63;;;;;;;;;;5074869;28;20779;-48
2021/08/25 09:35:15;;;;;;;4.10;2.50;;;;;;;;;;5074607;28;20074;-44
2021/08/25 09:37:50;;;;;;;2.85;1.90;;;;;;;;;;5074925;28;20119;-39
2021/08/25 09:40:17;;;;;;;5.25;1.23;;;;;;;;;;5073927;28;20136;-39
2021/08/25 09:42:43;;;;;;;2.05;1.52;;;;;;;;;;5073852;28;20020;-39
2021/08/25 09:45:12;;;;;;;3.45;1.83;;;;;;;;;;5072257;28;20040;-39
2021/08/25 09:47:49;;;;;;;4.38;1.83;;;;;;;;;;5074431;28;20020;-38
2021/08/25 09:50:19;;;;;;;8.40;1.63;;;;;;;;;;5076254;28;20019;-38
2021/08/25 09:52:44;;;;;;;6.40;2.20;;;;;;;;;;5071714;28;20016;-38
2021/08/25 09:55:10;;;;;;;2.08;1.60;;;;;;;;;;5075584;28;20035;-38
2021/08/25 09:57:36;;;;;;;2.85;2.03;;;;;;;;;;5074313;28;20031;-39
2021/08/25 10:00:03;;;;;;;2.45;2.17;;;;;;;;;;5075320;28;20049;-39
2021/08/25 10:02:28;;;;;;;5.13;1.60;;;;;;;;;;5072442;28;20020;-38
2021/08/25 10:04:54;;;;;;;3.88;2.08;;;;;;;;;;5075294;28;20182;-39
2021/08/25 10:07:19;;;;;;;2.03;1.63;;;;;;;;;;5073646;28;20047;-39
2021/08/25 10:09:45;;;;;;;3.60;1.73;;;;;;;;;;5068608;28;20432;-39
2021/08/25 10:12:10;;;;;;;2.90;1.70;;;;;;;;;;5069298;28;20472;-39
2021/08/25 10:14:36;;;;;;;4.53;1.80;;;;;;;;;;5073118;28;20480;-38
2021/08/25 10:17:02;;;;;;;5.38;2.38;;;;;;;;;;5087768;28;20046;-38
2021/08/25 10:19:36;;;;;;;3.40;2.45;;;;;;;;;;5072778;28;20040;-39
2021/08/25 10:22:23;;;;;;;6.47;2.03;;;;;;;;;;5071983;28;20552;-39
2021/08/25 10:24:48;;;;;;;5.88;2.70;;;;;;;;;;5072714;28;20105;-39
2021/08/25 10:27:14;;;;;;;2.50;1.30;;;;;;;;;;5076697;28;20492;-39
2021/08/25 10:30:08;;;;;;;4.13;1.73;;;;;;;;;;5068027;28;20039;-41
2021/08/25 10:32:35;;;;;;;6.40;1.95;;;;;;;;;;5054026;28;20526;-37
2021/08/25 10:35:18;;;;;;;4.95;1.60;;;;;;;;;;5073531;28;20063;-40
2021/08/25 10:37:45;;;;;;;5.28;4.40;;;;;;;;;;5071104;28;20031;-38
2021/08/25 10:40:11;;;;;;;2.75;1.63;;;;;;;;;;5068301;28;20945;-38
2021/08/25 10:42:43;;;;;;;4.03;1.95;;;;;;;;;;5064592;28;20109;-38
2021/08/25 10:45:08;;;;;;;3.95;2.55;;;;;;;;;;5073674;28;20027;-43
2021/08/25 10:47:53;;;;;;;6.18;1.98;;;;;;;;;;5065747;28;20395;-38
2021/08/25 10:50:18;;;;;;;1.40;1.15;;;;;;;;;;5071472;28;20056;-39
2021/08/25 10:52:43;;;;;;;3.35;2.22;;;;;;;;;;5071378;28;20024;-38
2021/08/25 10:55:08;;;;;;;4.25;2.17;;;;;;;;;;5073557;28;20020;-38
2021/08/25 10:57:34;;;;;;;8.25;2.28;;;;;;;;;;5073184;28;20027;-39
2021/08/25 11:00:09;;;;;;;9.05;3.67;;;;;;;;;;5073366;28;20048;-39
2021/08/25 11:02:38;;;;;;;5.15;3.13;;;;;;;;;;5074947;28;20017;-39
2021/08/25 11:05:03;;;;;;;3.67;2.17;;;;;;;;;;5069610;28;20128;-38
2021/08/25 11:07:29;;;;;;;3.70;3.25;;;;;;;;;;5072303;28;20119;-39
2021/08/25 11:09:54;;;;;;;5.60;3.10;;;;;;;;;;5070865;28;20050;-38
2021/08/25 11:12:23;;;;;;;8.13;2.45;;;;;;;;;;5072256;28;20570;-38
2021/08/25 11:14:50;;;;;;;3.63;2.60;;;;;;;;;;5064544;28;20029;-38
2021/08/25 11:17:17;;;;;;;8.88;4.38;;;;;;;;;;5073340;28;20020;-52
2021/08/25 11:19:48;;;;;;;5.47;2.80;;;;;;;;;;5068173;28;20017;-51
2021/08/25 11:22:18;;;;;;;5.88;1.70;;;;;;;;;;5068782;28;20024;-39
2021/08/25 11:24:46;;;;;;;6.25;2.95;;;;;;;;;;5078499;28;20025;-38
2021/08/25 11:27:24;;;;;;;4.13;1.88;;;;;;;;;;5070781;28;20028;-38
2021/08/25 11:30:04;;;;;;;20.95;3.17;;;;;;;;;;5072654;28;20035;-38
2021/08/25 11:32:29;;;;;;;8.40;2.80;;;;;;;;;;5071598;28;20020;-38
2021/08/25 11:34:55;;;;;;;4.13;2.10;;;;;;;;;;5069965;28;20050;-38
2021/08/25 11:37:21;;;;;;;3.38;1.95;;;;;;;;;;5067955;28;20027;-39
2021/08/25 11:39:56;;;;;;;6.78;1.75;;;;;;;;;;5073149;28;20032;-39
2021/08/25 11:42:27;;;;;;;2.38;1.80;;;;;;;;;;5072154;28;20557;-39
2021/08/25 11:44:53;;;;;;;2.38;1.52;;;;;;;;;;5089589;28;20135;-39
2021/08/25 11:47:19;;;;;;;3.38;2.35;;;;;;;;;;5072881;28;20203;-39
2021/08/25 11:49:46;;;;;;;2.15;1.80;;;;;;;;;;5074568;28;20429;-40
2021/08/25 11:52:11;;;;;;;2.15;1.60;;;;;;;;;;5078974;28;20027;-39
2021/08/25 11:54:38;;;;;;;3.58;1.83;;;;;;;;;;5073866;28;20423;-39
2021/08/25 11:57:04;;;;;;;2.67;2.08;;;;;;;;;;5076346;28;20028;-40
2021/08/25 11:59:30;;;;;;;3.08;2.25;;;;;;;;;;5073224;28;20103;-40
2021/08/25 12:02:21;;;;;;;12.82;2.58;;;;;;;;;;5077726;28;20123;-40
2021/08/25 12:04:46;;;;;;;9.68;3.10;;;;;;;;;;5072437;28;20040;-39
2021/08/25 12:07:12;;;;;;;2.05;1.50;;;;;;;;;;5069043;28;20507;-39
2021/08/25 12:09:38;;;;;;;2.58;1.98;;;;;;;;;;5074630;28;20054;-41
2021/08/25 12:12:04;;;;;;;2.63;1.73;;;;;;;;;;5075861;28;20020;-43
2021/08/25 12:14:48;;;;;;;4.97;2.22;;;;;;;;;;5074254;28;20036;-39
2021/08/25 12:17:13;;;;;;;3.38;1.77;;;;;;;;;;5075533;28;20697;-39
2021/08/25 12:19:38;;;;;;;4.78;1.88;;;;;;;;;;5075678;28;20031;-39
2021/08/25 12:22:25;;;;;;;3.22;1.95;;;;;;;;;;5076632;28;20069;-39
2021/08/25 12:24:50;;;;;;;5.35;2.42;;;;;;;;;;5073547;28;20039;-42
2021/08/25 12:27:16;;;;;;;18.65;8.80;;;;;;;;;;5073042;28;20472;-39
2021/08/25 12:29:43;;;;;;;13.10;6.32;;;;;;;;;;5070936;28;20027;-40
2021/08/25 12:32:09;;;;;;;11.15;4.88;;;;;;;;;;5071124;28;20475;-38
2021/08/25 12:34:34;;;;;;;13.88;4.32;;;;;;;;;;5076871;28;20080;-39
2021/08/25 12:37:01;;;;;;;5.50;2.55;;;;;;;;;;5072926;28;20096;-40
2021/08/25 12:39:28;;;;;;;13.15;4.82;;;;;;;;;;5072648;28;20047;-39
2021/08/25 12:41:54;;;;;;;6.47;3.53;;;;;;;;;;5077803;28;20595;-38
2021/08/25 12:44:19;;;;;;;6.05;2.40;;;;;;;;;;5076059;28;20199;-38
2021/08/25 12:47:00;;;;;;;14.63;2.92;;;;;;;;;;5068581;28;20396;-38
2021/08/25 12:49:30;;;;;;;11.13;2.88;;;;;;;;;;5075749;28;20021;-39
2021/08/25 12:51:56;;;;;;;5.05;2.40;;;;;;;;;;5072043;28;20024;-39
2021/08/25 12:54:21;;;;;;;3.92;1.85;;;;;;;;;;5091854;28;20078;-36
2021/08/25 12:56:46;;;;;;;2.40;1.92;;;;;;;;;;5076228;28;20122;-38
2021/08/25 12:59:12;;;;;;;15.63;2.58;;;;;;;;;;5076021;28;20020;-37
2021/08/25 13:01:37;;;;;;;10.32;2.75;;;;;;;;;;5074035;28;20220;-37
2021/08/25 13:04:03;;;;;;;9.05;2.92;;;;;;;;;;5077899;28;20048;-39
2021/08/25 13:06:28;;;;;;;4.43;3.28;;;;;;;;;;5073903;28;20036;-38
2021/08/25 13:08:53;;;;;;;11.77;3.08;;;;;;;;;;5064678;28;20043;-38
2021/08/25 13:11:19;;;;;;;3.45;2.33;;;;;;;;;;5076760;28;20031;-38
2021/08/25 13:13:44;;;;;;;5.50;2.72;;;;;;;;;;5073719;28;20544;-38
2021/08/25 13:16:12;;;;;;;4.90;2.08;;;;;;;;;;5069276;28;20027;-37
2021/08/25 13:18:38;;;;;;;10.98;5.80;;;;;;;;;;5076842;28;20021;-37
2021/08/25 13:21:03;;;;;;;6.82;3.40;;;;;;;;;;5074584;28;20028;-38
2021/08/25 13:23:28;;;;;;;4.38;2.85;;;;;;;;;;5070782;28;20017;-38
2021/08/25 13:25:54;;;;;;;19.52;2.70;;;;;;;;;;5075329;28;20131;-37
2021/08/25 13:28:19;;;;;;;3.55;2.58;;;;;;;;;;5076451;28;20021;-38
2021/08/25 13:30:44;;;;;;;4.53;2.15;;;;;;;;;;5076604;28;20085;-38
2021/08/25 13:33:10;;;;;;;3.95;2.67;;;;;;;;;;5074056;28;20107;-37
2021/08/25 13:35:35;;;;;;;6.05;2.90;;;;;;;;;;5073395;28;20217;-37
2021/08/25 13:38:00;;;;;;;10.18;2.55;;;;;;;;;;5074615;28;20016;-37
2021/08/25 13:40:25;;;;;;;3.85;1.98;;;;;;;;;;5071241;28;20016;-38
2021/08/25 13:42:51;;;;;;;5.88;2.85;;;;;;;;;;5073999;28;20020;-37
2021/08/25 13:45:16;;;;;;;3.78;2.40;;;;;;;;;;5077687;28;20449;-37
2021/08/25 13:47:41;;;;;;;3.83;2.90;;;;;;;;;;5072382;28;20486;-37
2021/08/25 13:50:07;;;;;;;3.22;2.65;;;;;;;;;;5074321;28;20033;-37
2021/08/25 13:52:32;;;;;;;4.80;3.30;;;;;;;;;;5068706;28;20029;-38
2021/08/25 13:54:58;;;;;;;4.32;2.15;;;;;;;;;;5067734;28;20024;-47
2021/08/25 13:57:23;;;;;;;4.03;3.03;;;;;;;;;;5073428;28;20059;-46
2021/08/25 13:59:50;;;;;;;4.30;3.13;;;;;;;;;;5076843;28;20027;-46
2021/08/25 14:02:15;;;;;;;5.57;3.05;;;;;;;;;;5073929;28;20013;-46
2021/08/25 14:04:41;;;;;;;4.35;3.40;;;;;;;;;;5073675;28;20036;-46
2021/08/25 14:07:06;;;;;;;3.40;2.95;;;;;;;;;;5077321;28;20875;-46
2021/08/25 14:09:31;;;;;;;4.75;2.33;;;;;;;;;;5070513;28;20053;-46
2021/08/25 14:11:56;;;;;;;6.10;2.70;;;;;;;;;;5070238;28;20870;-46
2021/08/25 14:14:22;;;;;;;3.88;2.78;;;;;;;;;;5072870;28;20035;-46
2021/08/25 14:16:47;;;;;;;4.78;2.95;;;;;;;;;;5072487;28;20020;-46
2021/08/25 14:19:12;;;;;;;9.00;3.35;;;;;;;;;;5076037;28;20071;-44
2021/08/25 14:21:38;;;;;;;5.10;3.92;;;;;;;;;;5070729;28;20392;-44
2021/08/25 14:24:03;;;;;;;3.63;3.30;;;;;;;;;;5075462;28;20063;-44
2021/08/25 14:26:30;;;;;;;4.20;3.22;;;;;;;;;;5071835;28;20033;-43
2021/08/25 14:28:55;;;;;;;3.97;2.47;;;;;;;;;;5074647;28;20026;-44
2021/08/25 14:31:20;;;;;;;2.47;1.95;;;;;;;;;;5074597;28;20550;-47
2021/08/25 14:33:46;;;;;;;7.75;2.35;;;;;;;;;;5070547;28;20490;-45
2021/08/25 14:36:11;;;;;;;5.63;2.58;;;;;;;;;;5072790;28;20020;-44